sensor_id;sensor_type;location;lat;lon;timestamp;P1;durP1;ratioP1;P2;durP2;ratioP2
68144;SDS011;55400;51.824;-0.196;2022-10-16T00:01:34;16.83;;;3.72;;
68144;SDS011;55400;51.824;-0.196;2022-10-16T00:04:00;16.40;;;3.35;;
68144;SDS011;55400;51.824;-0.196;2022-10-16T00:06:27;21.90;;;4.15;;
68144;SDS011;55400;51.824;-0.196;2022-10-16T00:08:53;20.55;;;3.60;;
68144;SDS011;55400;51.824;-0.196;2022-10-16T00:13:54;16.80;;;3.75;;
68144;SDS011;55400;51.824;-0.196;2022-10-16T00:16:22;25.70;;;4.25;;
68144;SDS011;55400;51.824;-0.196;2022-10-16T00:18:47;16.20;;;2.95;;
68144;SDS011;55400;51.824;-0.196;2022-10-16T00:21:14;21.23;;;3.42;;
68144;SDS011;55400;51.824;-0.196;2022-10-16T00:23:52;20.83;;;3.45;;
68144;SDS011;55400;51.824;-0.196;2022-10-16T00:26:19;22.02;;;3.55;;
68144;SDS011;55400;51.824;-0.196;2022-10-16T00:28:45;20.77;;;3.25;;
68144;SDS011;55400;51.824;-0.196;2022-10-16T00:31:12;20.02;;;3.65;;
68144;SDS011;55400;51.824;-0.196;2022-10-16T00:33:39;19.13;;;3.80;;
68144;SDS011;55400;51.824;-0.196;2022-10-16T00:36:05;19.45;;;3.45;;
68144;SDS011;55400;51.824;-0.196;2022-10-16T00:38:32;18.42;;;2.92;;
68144;SDS011;55400;51.824;-0.196;2022-10-16T00:40:58;19.95;;;3.17;;
68144;SDS011;55400;51.824;-0.196;2022-10-16T00:46:22;20.42;;;4.00;;
68144;SDS011;55400;51.824;-0.196;2022-10-16T00:51:38;16.45;;;3.03;;
68144;SDS011;55400;51.824;-0.196;2022-10-16T00:54:10;18.90;;;3.80;;
68144;SDS011;55400;51.824;-0.196;2022-10-16T00:56:38;20.50;;;3.13;;
68144;SDS011;55400;51.824;-0.196;2022-10-16T00:59:06;17.02;;;3.17;;
68144;SDS011;55400;51.824;-0.196;2022-10-16T01:01:39;12.75;;;2.97;;
68144;SDS011;55400;51.824;-0.196;2022-10-16T01:04:04;20.92;;;3.40;;
68144;SDS011;55400;51.824;-0.196;2022-10-16T01:06:53;18.67;;;3.50;;
68144;SDS011;55400;51.824;-0.196;2022-10-16T01:14:40;17.05;;;3.35;;
68144;SDS011;55400;51.824;-0.196;2022-10-16T01:17:11;16.45;;;2.97;;
68144;SDS011;55400;51.824;-0.196;2022-10-16T01:22:17;13.48;;;3.45;;
68144;SDS011;55400;51.824;-0.196;2022-10-16T01:24:48;13.35;;;2.85;;
68144;SDS011;55400;51.824;-0.196;2022-10-16T01:27:22;23.02;;;3.45;;
68144;SDS011;55400;51.824;-0.196;2022-10-16T01:30:07;21.10;;;3.47;;
68144;SDS011;55400;51.824;-0.196;2022-10-16T01:32:40;22.88;;;3.15;;
68144;SDS011;55400;51.824;-0.196;2022-10-16T01:40:57;26.52;;;3.45;;
68144;SDS011;55400;51.824;-0.196;2022-10-16T01:43:31;15.88;;;2.95;;
68144;SDS011;55400;51.824;-0.196;2022-10-16T01:46:00;13.13;;;2.83;;
68144;SDS011;55400;51.824;-0.196;2022-10-16T01:48:26;17.00;;;3.13;;
68144;SDS011;55400;51.824;-0.196;2022-10-16T01:50:54;13.65;;;2.70;;
68144;SDS011;55400;51.824;-0.196;2022-10-16T01:53:24;12.82;;;2.97;;
68144;SDS011;55400;51.824;-0.196;2022-10-16T01:55:52;20.75;;;3.72;;
68144;SDS011;55400;51.824;-0.196;2022-10-16T01:58:20;19.33;;;3.92;;
68144;SDS011;55400;51.824;-0.196;2022-10-16T02:00:48;12.48;;;2.58;;
68144;SDS011;55400;51.824;-0.196;2022-10-16T02:03:14;12.73;;;2.85;;
68144;SDS011;55400;51.824;-0.196;2022-10-16T02:05:47;14.38;;;3.10;;
68144;SDS011;55400;51.824;-0.196;2022-10-16T02:08:19;12.52;;;3.03;;
68144;SDS011;55400;51.824;-0.196;2022-10-16T02:10:47;15.48;;;3.20;;
68144;SDS011;55400;51.824;-0.196;2022-10-16T02:13:26;17.67;;;3.28;;
68144;SDS011;55400;51.824;-0.196;2022-10-16T02:15:54;15.18;;;2.80;;
68144;SDS011;55400;51.824;-0.196;2022-10-16T02:18:19;16.38;;;2.97;;
68144;SDS011;55400;51.824;-0.196;2022-10-16T02:23:44;13.35;;;2.97;;
68144;SDS011;55400;51.824;-0.196;2022-10-16T02:26:06;14.73;;;3.05;;
68144;SDS011;55400;51.824;-0.196;2022-10-16T02:28:42;11.45;;;3.38;;
68144;SDS011;55400;51.824;-0.196;2022-10-16T02:31:18;11.80;;;2.72;;
68144;SDS011;55400;51.824;-0.196;2022-10-16T02:33:48;14.30;;;2.92;;
68144;SDS011;55400;51.824;-0.196;2022-10-16T02:36:16;14.93;;;3.22;;
68144;SDS011;55400;51.824;-0.196;2022-10-16T02:38:42;18.98;;;2.85;;
68144;SDS011;55400;51.824;-0.196;2022-10-16T02:41:07;17.15;;;3.25;;
68144;SDS011;55400;51.824;-0.196;2022-10-16T02:43:33;13.30;;;2.67;;
68144;SDS011;55400;51.824;-0.196;2022-10-16T02:45:59;11.50;;;2.42;;
68144;SDS011;55400;51.824;-0.196;2022-10-16T02:48:25;10.10;;;2.42;;
68144;SDS011;55400;51.824;-0.196;2022-10-16T02:50:50;15.88;;;2.65;;
68144;SDS011;55400;51.824;-0.196;2022-10-16T02:53:16;16.25;;;2.67;;
68144;SDS011;55400;51.824;-0.196;2022-10-16T02:55:41;14.65;;;2.80;;
68144;SDS011;55400;51.824;-0.196;2022-10-16T02:58:07;11.05;;;2.25;;
68144;SDS011;55400;51.824;-0.196;2022-10-16T03:00:32;9.95;;;2.45;;
68144;SDS011;55400;51.824;-0.196;2022-10-16T03:02:58;12.15;;;2.80;;
68144;SDS011;55400;51.824;-0.196;2022-10-16T03:05:23;17.15;;;2.35;;
68144;SDS011;55400;51.824;-0.196;2022-10-16T03:07:49;15.90;;;3.30;;
68144;SDS011;55400;51.824;-0.196;2022-10-16T03:10:14;15.77;;;3.28;;
68144;SDS011;55400;51.824;-0.196;2022-10-16T03:12:39;11.63;;;2.67;;
68144;SDS011;55400;51.824;-0.196;2022-10-16T03:15:05;6.80;;;2.28;;
68144;SDS011;55400;51.824;-0.196;2022-10-16T03:17:31;12.68;;;2.42;;
68144;SDS011;55400;51.824;-0.196;2022-10-16T03:19:57;13.40;;;2.30;;
68144;SDS011;55400;51.824;-0.196;2022-10-16T03:22:22;10.68;;;2.38;;
68144;SDS011;55400;51.824;-0.196;2022-10-16T03:24:48;10.95;;;2.38;;
68144;SDS011;55400;51.824;-0.196;2022-10-16T03:27:13;10.75;;;2.38;;
68144;SDS011;55400;51.824;-0.196;2022-10-16T03:29:39;8.20;;;2.08;;
68144;SDS011;55400;51.824;-0.196;2022-10-16T03:32:04;9.25;;;2.60;;
68144;SDS011;55400;51.824;-0.196;2022-10-16T03:34:29;10.52;;;2.97;;
68144;SDS011;55400;51.824;-0.196;2022-10-16T03:36:55;9.40;;;2.28;;
68144;SDS011;55400;51.824;-0.196;2022-10-16T03:39:20;9.00;;;2.75;;
68144;SDS011;55400;51.824;-0.196;2022-10-16T03:41:46;13.48;;;2.60;;
68144;SDS011;55400;51.824;-0.196;2022-10-16T03:44:11;15.43;;;2.63;;
68144;SDS011;55400;51.824;-0.196;2022-10-16T03:46:37;12.68;;;2.25;;
68144;SDS011;55400;51.824;-0.196;2022-10-16T03:49:03;7.60;;;1.77;;
68144;SDS011;55400;51.824;-0.196;2022-10-16T03:51:28;13.05;;;2.42;;
68144;SDS011;55400;51.824;-0.196;2022-10-16T03:53:53;5.95;;;1.70;;
68144;SDS011;55400;51.824;-0.196;2022-10-16T03:56:19;11.98;;;2.53;;
68144;SDS011;55400;51.824;-0.196;2022-10-16T03:58:44;15.77;;;2.67;;
68144;SDS011;55400;51.824;-0.196;2022-10-16T04:01:10;11.18;;;2.50;;
68144;SDS011;55400;51.824;-0.196;2022-10-16T04:03:35;10.07;;;2.45;;
68144;SDS011;55400;51.824;-0.196;2022-10-16T04:06:00;13.88;;;2.72;;
68144;SDS011;55400;51.824;-0.196;2022-10-16T04:08:26;10.38;;;2.03;;
68144;SDS011;55400;51.824;-0.196;2022-10-16T04:10:51;14.43;;;2.20;;
68144;SDS011;55400;51.824;-0.196;2022-10-16T04:13:16;11.57;;;3.28;;
68144;SDS011;55400;51.824;-0.196;2022-10-16T04:15:42;15.52;;;2.80;;
68144;SDS011;55400;51.824;-0.196;2022-10-16T04:18:09;18.20;;;2.83;;
68144;SDS011;55400;51.824;-0.196;2022-10-16T04:20:35;14.70;;;2.83;;
68144;SDS011;55400;51.824;-0.196;2022-10-16T04:23:00;13.50;;;3.00;;
68144;SDS011;55400;51.824;-0.196;2022-10-16T04:25:26;9.52;;;2.35;;
68144;SDS011;55400;51.824;-0.196;2022-10-16T04:27:54;11.90;;;2.28;;
68144;SDS011;55400;51.824;-0.196;2022-10-16T04:30:20;15.18;;;3.17;;
68144;SDS011;55400;51.824;-0.196;2022-10-16T04:32:50;17.52;;;2.97;;
68144;SDS011;55400;51.824;-0.196;2022-10-16T04:35:17;12.02;;;2.42;;
68144;SDS011;55400;51.824;-0.196;2022-10-16T04:37:44;11.55;;;2.40;;
68144;SDS011;55400;51.824;-0.196;2022-10-16T04:40:10;12.48;;;2.20;;
68144;SDS011;55400;51.824;-0.196;2022-10-16T04:42:35;18.67;;;2.97;;
68144;SDS011;55400;51.824;-0.196;2022-10-16T04:45:01;11.57;;;3.10;;
68144;SDS011;55400;51.824;-0.196;2022-10-16T04:47:26;11.63;;;2.30;;
68144;SDS011;55400;51.824;-0.196;2022-10-16T04:49:51;11.48;;;2.60;;
68144;SDS011;55400;51.824;-0.196;2022-10-16T04:52:17;13.75;;;2.63;;
68144;SDS011;55400;51.824;-0.196;2022-10-16T04:54:43;16.17;;;2.72;;
68144;SDS011;55400;51.824;-0.196;2022-10-16T04:57:10;21.60;;;3.17;;
68144;SDS011;55400;51.824;-0.196;2022-10-16T04:59:35;11.88;;;2.97;;
68144;SDS011;55400;51.824;-0.196;2022-10-16T05:02:01;14.93;;;2.30;;
68144;SDS011;55400;51.824;-0.196;2022-10-16T05:04:26;7.70;;;1.95;;
68144;SDS011;55400;51.824;-0.196;2022-10-16T05:06:52;10.75;;;2.33;;
68144;SDS011;55400;51.824;-0.196;2022-10-16T05:09:17;13.43;;;2.83;;
68144;SDS011;55400;51.824;-0.196;2022-10-16T05:11:43;17.85;;;3.63;;
68144;SDS011;55400;51.824;-0.196;2022-10-16T05:14:08;11.63;;;2.53;;
68144;SDS011;55400;51.824;-0.196;2022-10-16T05:16:33;12.60;;;2.88;;
68144;SDS011;55400;51.824;-0.196;2022-10-16T05:18:59;10.85;;;2.63;;
68144;SDS011;55400;51.824;-0.196;2022-10-16T05:21:25;12.65;;;2.45;;
68144;SDS011;55400;51.824;-0.196;2022-10-16T05:23:50;12.00;;;2.30;;
68144;SDS011;55400;51.824;-0.196;2022-10-16T05:26:15;11.02;;;2.50;;
68144;SDS011;55400;51.824;-0.196;2022-10-16T05:28:41;12.32;;;2.85;;
68144;SDS011;55400;51.824;-0.196;2022-10-16T05:31:07;15.70;;;2.72;;
68144;SDS011;55400;51.824;-0.196;2022-10-16T05:33:33;10.07;;;2.58;;
68144;SDS011;55400;51.824;-0.196;2022-10-16T05:36:06;16.55;;;3.15;;
68144;SDS011;55400;51.824;-0.196;2022-10-16T05:38:33;15.43;;;2.78;;
68144;SDS011;55400;51.824;-0.196;2022-10-16T05:41:00;12.25;;;2.33;;
68144;SDS011;55400;51.824;-0.196;2022-10-16T05:43:26;16.98;;;3.60;;
68144;SDS011;55400;51.824;-0.196;2022-10-16T05:45:53;11.68;;;2.40;;
68144;SDS011;55400;51.824;-0.196;2022-10-16T05:48:23;13.23;;;2.92;;
68144;SDS011;55400;51.824;-0.196;2022-10-16T05:50:55;9.73;;;1.95;;
68144;SDS011;55400;51.824;-0.196;2022-10-16T05:53:25;11.75;;;1.90;;
68144;SDS011;55400;51.824;-0.196;2022-10-16T05:55:52;11.13;;;2.75;;
68144;SDS011;55400;51.824;-0.196;2022-10-16T05:58:19;11.45;;;2.95;;
68144;SDS011;55400;51.824;-0.196;2022-10-16T06:00:44;15.23;;;3.10;;
68144;SDS011;55400;51.824;-0.196;2022-10-16T06:03:09;16.20;;;2.95;;
68144;SDS011;55400;51.824;-0.196;2022-10-16T06:05:35;14.95;;;2.83;;
68144;SDS011;55400;51.824;-0.196;2022-10-16T06:08:00;18.73;;;3.03;;
68144;SDS011;55400;51.824;-0.196;2022-10-16T06:10:25;19.77;;;2.55;;
68144;SDS011;55400;51.824;-0.196;2022-10-16T06:12:51;11.65;;;2.58;;
68144;SDS011;55400;51.824;-0.196;2022-10-16T06:15:16;10.20;;;2.47;;
68144;SDS011;55400;51.824;-0.196;2022-10-16T06:17:41;20.48;;;2.88;;
68144;SDS011;55400;51.824;-0.196;2022-10-16T06:20:07;14.93;;;3.05;;
68144;SDS011;55400;51.824;-0.196;2022-10-16T06:22:41;17.88;;;3.17;;
68144;SDS011;55400;51.824;-0.196;2022-10-16T06:25:10;16.88;;;3.05;;
68144;SDS011;55400;51.824;-0.196;2022-10-16T06:27:35;12.73;;;3.45;;
68144;SDS011;55400;51.824;-0.196;2022-10-16T06:30:01;18.52;;;2.85;;
68144;SDS011;55400;51.824;-0.196;2022-10-16T06:32:27;8.63;;;2.42;;
68144;SDS011;55400;51.824;-0.196;2022-10-16T06:34:52;13.07;;;2.78;;
68144;SDS011;55400;51.824;-0.196;2022-10-16T06:37:18;15.60;;;2.88;;
68144;SDS011;55400;51.824;-0.196;2022-10-16T06:39:43;18.50;;;3.15;;
68144;SDS011;55400;51.824;-0.196;2022-10-16T06:42:09;13.25;;;2.75;;
68144;SDS011;55400;51.824;-0.196;2022-10-16T06:44:34;13.20;;;2.83;;
68144;SDS011;55400;51.824;-0.196;2022-10-16T06:46:59;18.35;;;2.88;;
68144;SDS011;55400;51.824;-0.196;2022-10-16T06:49:25;16.08;;;2.65;;
68144;SDS011;55400;51.824;-0.196;2022-10-16T06:51:50;17.30;;;2.53;;
68144;SDS011;55400;51.824;-0.196;2022-10-16T06:54:15;15.57;;;3.17;;
68144;SDS011;55400;51.824;-0.196;2022-10-16T06:56:42;11.13;;;2.13;;
68144;SDS011;55400;51.824;-0.196;2022-10-16T06:59:08;7.88;;;2.05;;
68144;SDS011;55400;51.824;-0.196;2022-10-16T07:01:33;19.73;;;3.13;;
68144;SDS011;55400;51.824;-0.196;2022-10-16T07:03:59;11.85;;;2.47;;
68144;SDS011;55400;51.824;-0.196;2022-10-16T07:06:26;11.70;;;2.08;;
68144;SDS011;55400;51.824;-0.196;2022-10-16T07:08:52;12.68;;;2.67;;
68144;SDS011;55400;51.824;-0.196;2022-10-16T07:11:19;13.20;;;2.92;;
68144;SDS011;55400;51.824;-0.196;2022-10-16T07:13:47;19.25;;;3.35;;
68144;SDS011;55400;51.824;-0.196;2022-10-16T07:16:14;9.43;;;2.03;;
68144;SDS011;55400;51.824;-0.196;2022-10-16T07:18:41;10.40;;;2.33;;
68144;SDS011;55400;51.824;-0.196;2022-10-16T07:23:36;15.43;;;2.38;;
68144;SDS011;55400;51.824;-0.196;2022-10-16T07:26:03;10.93;;;2.40;;
68144;SDS011;55400;51.824;-0.196;2022-10-16T07:28:28;14.75;;;2.42;;
68144;SDS011;55400;51.824;-0.196;2022-10-16T07:30:54;11.60;;;2.63;;
68144;SDS011;55400;51.824;-0.196;2022-10-16T07:33:20;17.60;;;2.67;;
68144;SDS011;55400;51.824;-0.196;2022-10-16T07:35:52;10.65;;;2.33;;
68144;SDS011;55400;51.824;-0.196;2022-10-16T07:38:19;13.30;;;2.72;;
68144;SDS011;55400;51.824;-0.196;2022-10-16T07:40:46;16.55;;;2.72;;
68144;SDS011;55400;51.824;-0.196;2022-10-16T07:43:12;13.10;;;3.47;;
68144;SDS011;55400;51.824;-0.196;2022-10-16T07:45:48;7.95;;;2.63;;
68144;SDS011;55400;51.824;-0.196;2022-10-16T07:48:14;14.27;;;2.53;;
68144;SDS011;55400;51.824;-0.196;2022-10-16T07:50:40;10.32;;;2.45;;
68144;SDS011;55400;51.824;-0.196;2022-10-16T07:53:06;14.32;;;3.45;;
68144;SDS011;55400;51.824;-0.196;2022-10-16T07:55:32;15.23;;;3.33;;
68144;SDS011;55400;51.824;-0.196;2022-10-16T07:57:57;12.30;;;2.50;;
68144;SDS011;55400;51.824;-0.196;2022-10-16T08:00:23;9.82;;;2.85;;
68144;SDS011;55400;51.824;-0.196;2022-10-16T08:02:48;16.08;;;2.70;;
68144;SDS011;55400;51.824;-0.196;2022-10-16T08:05:14;15.43;;;3.45;;
68144;SDS011;55400;51.824;-0.196;2022-10-16T08:07:39;8.40;;;2.13;;
68144;SDS011;55400;51.824;-0.196;2022-10-16T08:10:05;12.43;;;3.53;;
68144;SDS011;55400;51.824;-0.196;2022-10-16T08:12:30;10.38;;;2.25;;
68144;SDS011;55400;51.824;-0.196;2022-10-16T08:14:56;16.52;;;3.00;;
68144;SDS011;55400;51.824;-0.196;2022-10-16T08:17:21;10.18;;;2.30;;
68144;SDS011;55400;51.824;-0.196;2022-10-16T08:19:47;19.52;;;2.30;;
68144;SDS011;55400;51.824;-0.196;2022-10-16T08:22:15;10.77;;;2.95;;
68144;SDS011;55400;51.824;-0.196;2022-10-16T08:24:41;8.52;;;2.33;;
68144;SDS011;55400;51.824;-0.196;2022-10-16T08:27:06;14.85;;;2.55;;
68144;SDS011;55400;51.824;-0.196;2022-10-16T08:29:33;10.05;;;2.55;;
68144;SDS011;55400;51.824;-0.196;2022-10-16T08:31:59;13.57;;;2.55;;
68144;SDS011;55400;51.824;-0.196;2022-10-16T08:34:25;18.95;;;2.70;;
68144;SDS011;55400;51.824;-0.196;2022-10-16T08:37:05;12.02;;;2.42;;
68144;SDS011;55400;51.824;-0.196;2022-10-16T08:39:32;15.45;;;3.05;;
68144;SDS011;55400;51.824;-0.196;2022-10-16T08:45:08;16.30;;;2.70;;
68144;SDS011;55400;51.824;-0.196;2022-10-16T08:50:29;17.50;;;2.80;;
68144;SDS011;55400;51.824;-0.196;2022-10-16T08:52:56;11.80;;;2.60;;
68144;SDS011;55400;51.824;-0.196;2022-10-16T08:55:30;15.23;;;2.83;;
68144;SDS011;55400;51.824;-0.196;2022-10-16T08:58:13;12.98;;;2.80;;
68144;SDS011;55400;51.824;-0.196;2022-10-16T09:00:41;16.85;;;2.80;;
68144;SDS011;55400;51.824;-0.196;2022-10-16T09:16:56;14.52;;;2.63;;
68144;SDS011;55400;51.824;-0.196;2022-10-16T09:19:31;13.93;;;2.95;;
68144;SDS011;55400;51.824;-0.196;2022-10-16T09:22:04;19.50;;;3.88;;
68144;SDS011;55400;51.824;-0.196;2022-10-16T09:24:37;14.90;;;2.92;;
68144;SDS011;55400;51.824;-0.196;2022-10-16T09:27:03;18.73;;;3.42;;
68144;SDS011;55400;51.824;-0.196;2022-10-16T09:29:28;13.13;;;3.67;;
68144;SDS011;55400;51.824;-0.196;2022-10-16T09:31:54;15.10;;;3.17;;
68144;SDS011;55400;51.824;-0.196;2022-10-16T09:34:33;14.75;;;3.22;;
68144;SDS011;55400;51.824;-0.196;2022-10-16T09:37:03;14.10;;;2.90;;
68144;SDS011;55400;51.824;-0.196;2022-10-16T09:39:43;17.08;;;2.78;;
68144;SDS011;55400;51.824;-0.196;2022-10-16T09:42:20;12.63;;;2.65;;
68144;SDS011;55400;51.824;-0.196;2022-10-16T09:44:49;18.25;;;2.97;;
68144;SDS011;55400;51.824;-0.196;2022-10-16T09:47:43;12.80;;;2.88;;
68144;SDS011;55400;51.824;-0.196;2022-10-16T09:52:51;13.75;;;3.25;;
68144;SDS011;55400;51.824;-0.196;2022-10-16T09:55:27;12.65;;;3.25;;
68144;SDS011;55400;51.824;-0.196;2022-10-16T09:57:53;9.38;;;2.95;;
68144;SDS011;55400;51.824;-0.196;2022-10-16T10:00:20;17.77;;;2.95;;
68144;SDS011;55400;51.824;-0.196;2022-10-16T10:02:47;19.23;;;2.95;;
68144;SDS011;55400;51.824;-0.196;2022-10-16T10:07:53;9.77;;;2.35;;
68144;SDS011;55400;51.824;-0.196;2022-10-16T10:10:27;14.90;;;3.00;;
68144;SDS011;55400;51.824;-0.196;2022-10-16T10:12:55;9.57;;;2.55;;
68144;SDS011;55400;51.824;-0.196;2022-10-16T10:15:21;14.60;;;2.58;;
68144;SDS011;55400;51.824;-0.196;2022-10-16T10:17:50;14.90;;;2.13;;
68144;SDS011;55400;51.824;-0.196;2022-10-16T10:20:25;13.50;;;3.67;;
68144;SDS011;55400;51.824;-0.196;2022-10-16T10:23:24;12.55;;;2.85;;
68144;SDS011;55400;51.824;-0.196;2022-10-16T10:28:42;10.50;;;2.22;;
68144;SDS011;55400;51.824;-0.196;2022-10-16T10:31:36;11.45;;;2.05;;
68144;SDS011;55400;51.824;-0.196;2022-10-16T10:34:17;17.70;;;2.50;;
68144;SDS011;55400;51.824;-0.196;2022-10-16T10:36:45;8.30;;;1.92;;
68144;SDS011;55400;51.824;-0.196;2022-10-16T10:39:30;14.43;;;2.40;;
68144;SDS011;55400;51.824;-0.196;2022-10-16T10:44:43;10.25;;;2.15;;
68144;SDS011;55400;51.824;-0.196;2022-10-16T10:50:02;9.52;;;2.63;;
68144;SDS011;55400;51.824;-0.196;2022-10-16T11:06:28;8.30;;;1.98;;
68144;SDS011;55400;51.824;-0.196;2022-10-16T11:09:00;11.90;;;2.35;;
68144;SDS011;55400;51.824;-0.196;2022-10-16T11:11:37;8.70;;;2.17;;
68144;SDS011;55400;51.824;-0.196;2022-10-16T11:14:49;8.18;;;2.33;;
68144;SDS011;55400;51.824;-0.196;2022-10-16T11:19:42;11.25;;;2.28;;
68144;SDS011;55400;51.824;-0.196;2022-10-16T11:25:11;7.20;;;1.98;;
68144;SDS011;55400;51.824;-0.196;2022-10-16T11:30:34;9.43;;;2.35;;
68144;SDS011;55400;51.824;-0.196;2022-10-16T11:38:15;10.45;;;2.05;;
68144;SDS011;55400;51.824;-0.196;2022-10-16T11:41:44;12.73;;;2.85;;
68144;SDS011;55400;51.824;-0.196;2022-10-16T11:43:56;9.00;;;1.95;;
68144;SDS011;55400;51.824;-0.196;2022-10-16T11:46:29;13.18;;;2.25;;
68144;SDS011;55400;51.824;-0.196;2022-10-16T11:49:03;6.93;;;1.65;;
68144;SDS011;55400;51.824;-0.196;2022-10-16T11:51:37;17.55;;;3.70;;
68144;SDS011;55400;51.824;-0.196;2022-10-16T11:54:24;16.33;;;2.67;;
68144;SDS011;55400;51.824;-0.196;2022-10-16T11:56:59;10.48;;;2.47;;
68144;SDS011;55400;51.824;-0.196;2022-10-16T11:59:34;7.75;;;1.80;;
68144;SDS011;55400;51.824;-0.196;2022-10-16T12:04:58;10.82;;;2.55;;
68144;SDS011;55400;51.824;-0.196;2022-10-16T12:07:36;8.85;;;2.22;;
68144;SDS011;55400;51.824;-0.196;2022-10-16T12:10:27;9.50;;;2.63;;
68144;SDS011;55400;51.824;-0.196;2022-10-16T12:12:54;12.52;;;3.10;;
68144;SDS011;55400;51.824;-0.196;2022-10-16T12:17:47;10.73;;;2.75;;
68144;SDS011;55400;51.824;-0.196;2022-10-16T12:22:41;8.63;;;1.92;;
68144;SDS011;55400;51.824;-0.196;2022-10-16T12:30:40;14.02;;;2.10;;
68144;SDS011;55400;51.824;-0.196;2022-10-16T12:33:27;15.32;;;2.83;;
68144;SDS011;55400;51.824;-0.196;2022-10-16T12:36:07;10.57;;;2.40;;
68144;SDS011;55400;51.824;-0.196;2022-10-16T12:38:46;10.75;;;2.40;;
68144;SDS011;55400;51.824;-0.196;2022-10-16T12:41:23;9.20;;;2.35;;
68144;SDS011;55400;51.824;-0.196;2022-10-16T12:43:56;9.48;;;2.20;;
68144;SDS011;55400;51.824;-0.196;2022-10-16T12:46:24;13.60;;;2.75;;
68144;SDS011;55400;51.824;-0.196;2022-10-16T13:02:00;13.68;;;2.45;;
68144;SDS011;55400;51.824;-0.196;2022-10-16T13:07:28;11.25;;;2.30;;
68144;SDS011;55400;51.824;-0.196;2022-10-16T13:13:07;10.55;;;2.42;;
68144;SDS011;55400;51.824;-0.196;2022-10-16T13:16:18;10.15;;;2.40;;
68144;SDS011;55400;51.824;-0.196;2022-10-16T13:29:51;19.70;;;3.33;;
68144;SDS011;55400;51.824;-0.196;2022-10-16T13:32:20;15.95;;;2.85;;
68144;SDS011;55400;51.824;-0.196;2022-10-16T13:34:47;12.65;;;2.42;;
68144;SDS011;55400;51.824;-0.196;2022-10-16T13:37:21;14.82;;;2.70;;
68144;SDS011;55400;51.824;-0.196;2022-10-16T13:39:48;21.65;;;3.53;;
68144;SDS011;55400;51.824;-0.196;2022-10-16T13:42:25;13.88;;;2.95;;
68144;SDS011;55400;51.824;-0.196;2022-10-16T13:44:54;12.55;;;2.60;;
68144;SDS011;55400;51.824;-0.196;2022-10-16T13:47:22;12.27;;;2.90;;
68144;SDS011;55400;51.824;-0.196;2022-10-16T13:50:03;12.98;;;2.92;;
68144;SDS011;55400;51.824;-0.196;2022-10-16T13:52:31;28.67;;;12.10;;
68144;SDS011;55400;51.824;-0.196;2022-10-16T13:54:57;231.80;;;79.50;;
68144;SDS011;55400;51.824;-0.196;2022-10-16T13:57:23;179.38;;;65.57;;
68144;SDS011;55400;51.824;-0.196;2022-10-16T13:59:50;68.32;;;27.40;;
68144;SDS011;55400;51.824;-0.196;2022-10-16T14:04:47;35.13;;;14.25;;
68144;SDS011;55400;51.824;-0.196;2022-10-16T14:07:14;18.05;;;4.40;;
68144;SDS011;55400;51.824;-0.196;2022-10-16T14:09:53;13.50;;;4.05;;
68144;SDS011;55400;51.824;-0.196;2022-10-16T14:12:19;7.85;;;2.83;;
68144;SDS011;55400;51.824;-0.196;2022-10-16T14:14:46;7.93;;;2.60;;
68144;SDS011;55400;51.824;-0.196;2022-10-16T14:17:18;8.13;;;2.90;;
68144;SDS011;55400;51.824;-0.196;2022-10-16T14:19:46;14.10;;;2.92;;
68144;SDS011;55400;51.824;-0.196;2022-10-16T14:22:24;13.07;;;2.72;;
68144;SDS011;55400;51.824;-0.196;2022-10-16T14:24:54;10.05;;;3.05;;
68144;SDS011;55400;51.824;-0.196;2022-10-16T14:27:31;18.13;;;3.05;;
68144;SDS011;55400;51.824;-0.196;2022-10-16T14:32:40;18.02;;;3.60;;
68144;SDS011;55400;51.824;-0.196;2022-10-16T14:35:22;21.10;;;3.78;;
68144;SDS011;55400;51.824;-0.196;2022-10-16T14:37:53;19.90;;;3.22;;
68144;SDS011;55400;51.824;-0.196;2022-10-16T14:40:20;18.95;;;3.60;;
68144;SDS011;55400;51.824;-0.196;2022-10-16T14:42:50;7.57;;;2.50;;
68144;SDS011;55400;51.824;-0.196;2022-10-16T14:45:23;18.70;;;3.40;;
68144;SDS011;55400;51.824;-0.196;2022-10-16T14:47:53;16.15;;;3.00;;
68144;SDS011;55400;51.824;-0.196;2022-10-16T14:50:21;8.80;;;2.75;;
68144;SDS011;55400;51.824;-0.196;2022-10-16T14:52:47;14.50;;;3.03;;
68144;SDS011;55400;51.824;-0.196;2022-10-16T14:55:12;12.30;;;3.25;;
68144;SDS011;55400;51.824;-0.196;2022-10-16T14:57:39;9.52;;;2.67;;
68144;SDS011;55400;51.824;-0.196;2022-10-16T15:00:21;10.57;;;2.95;;
68144;SDS011;55400;51.824;-0.196;2022-10-16T15:02:48;12.40;;;3.13;;
68144;SDS011;55400;51.824;-0.196;2022-10-16T15:07:47;14.85;;;3.45;;
68144;SDS011;55400;51.824;-0.196;2022-10-16T15:10:14;9.77;;;3.00;;
68144;SDS011;55400;51.824;-0.196;2022-10-16T15:12:41;15.90;;;3.50;;
68144;SDS011;55400;51.824;-0.196;2022-10-16T15:17:42;11.75;;;3.30;;
68144;SDS011;55400;51.824;-0.196;2022-10-16T15:20:07;13.60;;;2.97;;
68144;SDS011;55400;51.824;-0.196;2022-10-16T15:22:33;16.17;;;3.20;;
68144;SDS011;55400;51.824;-0.196;2022-10-16T15:24:58;13.20;;;3.30;;
68144;SDS011;55400;51.824;-0.196;2022-10-16T15:27:24;15.23;;;3.33;;
68144;SDS011;55400;51.824;-0.196;2022-10-16T15:29:49;14.18;;;3.30;;
68144;SDS011;55400;51.824;-0.196;2022-10-16T15:32:15;11.38;;;3.30;;
68144;SDS011;55400;51.824;-0.196;2022-10-16T15:34:40;16.35;;;3.67;;
68144;SDS011;55400;51.824;-0.196;2022-10-16T15:37:06;13.60;;;3.00;;
68144;SDS011;55400;51.824;-0.196;2022-10-16T15:39:31;14.23;;;3.45;;
68144;SDS011;55400;51.824;-0.196;2022-10-16T15:41:56;16.05;;;3.35;;
68144;SDS011;55400;51.824;-0.196;2022-10-16T15:44:22;15.20;;;3.20;;
68144;SDS011;55400;51.824;-0.196;2022-10-16T15:46:50;14.18;;;3.95;;
68144;SDS011;55400;51.824;-0.196;2022-10-16T15:49:19;12.63;;;2.95;;
68144;SDS011;55400;51.824;-0.196;2022-10-16T15:51:44;18.98;;;3.10;;
68144;SDS011;55400;51.824;-0.196;2022-10-16T15:54:11;13.38;;;3.17;;
68144;SDS011;55400;51.824;-0.196;2022-10-16T15:56:36;16.70;;;3.40;;
68144;SDS011;55400;51.824;-0.196;2022-10-16T15:59:02;12.38;;;3.20;;
68144;SDS011;55400;51.824;-0.196;2022-10-16T16:01:28;14.38;;;3.42;;
68144;SDS011;55400;51.824;-0.196;2022-10-16T16:06:22;14.43;;;3.28;;
68144;SDS011;55400;51.824;-0.196;2022-10-16T16:08:51;16.05;;;3.15;;
68144;SDS011;55400;51.824;-0.196;2022-10-16T16:11:17;17.80;;;3.63;;
68144;SDS011;55400;51.824;-0.196;2022-10-16T16:13:43;15.13;;;3.13;;
68144;SDS011;55400;51.824;-0.196;2022-10-16T16:16:11;19.15;;;3.30;;
68144;SDS011;55400;51.824;-0.196;2022-10-16T16:18:38;19.42;;;3.15;;
68144;SDS011;55400;51.824;-0.196;2022-10-16T16:21:04;21.20;;;3.58;;
68144;SDS011;55400;51.824;-0.196;2022-10-16T16:23:29;19.95;;;3.92;;
68144;SDS011;55400;51.824;-0.196;2022-10-16T16:26:05;33.42;;;4.20;;
68144;SDS011;55400;51.824;-0.196;2022-10-16T16:28:46;16.52;;;3.90;;
68144;SDS011;55400;51.824;-0.196;2022-10-16T16:31:12;15.88;;;3.80;;
68144;SDS011;55400;51.824;-0.196;2022-10-16T16:33:37;15.48;;;3.75;;
68144;SDS011;55400;51.824;-0.196;2022-10-16T16:36:03;16.42;;;4.32;;
68144;SDS011;55400;51.824;-0.196;2022-10-16T16:40:57;18.10;;;3.28;;
68144;SDS011;55400;51.824;-0.196;2022-10-16T16:43:23;14.27;;;3.33;;
68144;SDS011;55400;51.824;-0.196;2022-10-16T16:45:52;28.33;;;3.83;;
68144;SDS011;55400;51.824;-0.196;2022-10-16T16:48:18;18.77;;;3.80;;
68144;SDS011;55400;51.824;-0.196;2022-10-16T16:50:44;15.75;;;3.30;;
68144;SDS011;55400;51.824;-0.196;2022-10-16T16:53:09;21.35;;;4.15;;
68144;SDS011;55400;51.824;-0.196;2022-10-16T16:55:35;13.45;;;4.32;;
68144;SDS011;55400;51.824;-0.196;2022-10-16T16:58:00;18.42;;;3.78;;
68144;SDS011;55400;51.824;-0.196;2022-10-16T17:00:27;22.33;;;4.05;;